createdAt,value
2018-09-22T00:01:29.115Z,13.30
2018-09-22T00:03:57.319Z,13.20
2018-09-22T00:06:25.536Z,13.10
2018-09-22T00:08:53.679Z,13.10
2018-09-22T00:11:21.902Z,13.10
2018-09-22T00:13:50.109Z,13.00
2018-09-22T00:16:18.365Z,13.00
2018-09-22T00:18:46.562Z,13.00
2018-09-22T00:21:14.841Z,13.00
2018-09-22T00:23:43.083Z,12.90
2018-09-22T00:26:11.594Z,12.90
2018-09-22T00:28:39.880Z,12.80
2018-09-22T00:31:07.998Z,12.80
2018-09-22T00:33:36.242Z,12.80
2018-09-22T00:36:04.537Z,12.80
2018-09-22T00:38:32.770Z,12.80
2018-09-22T00:41:01.060Z,12.70
2018-09-22T00:43:29.267Z,12.70
2018-09-22T00:45:57.475Z,12.70
2018-09-22T00:48:25.857Z,12.60
2018-09-22T00:50:54.093Z,12.60
2018-09-22T00:53:22.353Z,12.60
2018-09-22T00:55:50.607Z,12.60
2018-09-22T00:58:18.805Z,12.60
2018-09-22T01:00:47.019Z,12.60
2018-09-22T01:03:15.158Z,12.60
2018-09-22T01:05:43.324Z,12.60
2018-09-22T01:08:11.506Z,12.60
2018-09-22T01:10:39.671Z,12.60
2018-09-22T01:13:07.827Z,12.60
2018-09-22T01:15:36.059Z,12.60
2018-09-22T01:18:04.144Z,12.50
2018-09-22T01:20:32.261Z,12.60
2018-09-22T01:23:00.449Z,12.60
2018-09-22T01:25:28.623Z,12.60
2018-09-22T01:27:56.750Z,12.60
2018-09-22T01:30:24.845Z,12.60
2018-09-22T01:32:53.044Z,12.50
2018-09-22T01:35:21.164Z,12.40
2018-09-22T01:37:49.292Z,12.30
2018-09-22T01:40:17.406Z,12.40
2018-09-22T01:42:45.521Z,12.30
2018-09-22T01:45:13.698Z,12.20
2018-09-22T01:47:41.843Z,12.30
2018-09-22T01:50:09.957Z,12.40
2018-09-22T01:54:02.808Z,12.40
2018-09-22T01:56:31.014Z,12.50
2018-09-22T01:58:59.145Z,12.40
2018-09-22T02:01:27.326Z,12.40
2018-09-22T02:03:55.406Z,12.40
2018-09-22T02:06:23.574Z,12.50
2018-09-22T02:15:52.061Z,12.60
2018-09-22T02:18:20.170Z,12.60
2018-09-22T02:20:48.386Z,12.60
2018-09-22T02:23:16.561Z,12.60
2018-09-22T02:25:44.690Z,12.60
2018-09-22T02:28:12.902Z,12.60
2018-09-22T02:30:41.082Z,12.50
2018-09-22T02:33:09.266Z,12.50
2018-09-22T02:35:37.458Z,12.40
2018-09-22T02:38:05.581Z,12.50
2018-09-22T02:40:33.782Z,12.50
2018-09-22T02:43:01.962Z,12.50
2018-09-22T02:45:30.050Z,12.50
2018-09-22T02:47:58.116Z,12.50
2018-09-22T02:50:26.252Z,12.60
2018-09-22T02:52:54.405Z,12.60
2018-09-22T02:55:22.679Z,12.70
2018-09-22T02:57:50.920Z,12.60
2018-09-22T03:00:19.049Z,12.50
2018-09-22T03:02:47.213Z,12.50
2018-09-22T03:05:15.436Z,12.50
2018-09-22T03:07:43.525Z,12.50
2018-09-22T03:10:11.908Z,12.50
2018-09-22T03:12:39.830Z,12.50
2018-09-22T03:15:08.012Z,12.50
2018-09-22T03:17:36.348Z,12.40
2018-09-22T03:20:04.774Z,12.30
2018-09-22T03:22:33.117Z,12.40
2018-09-22T03:25:01.368Z,12.40
2018-09-22T03:27:29.510Z,12.30
2018-09-22T03:29:57.637Z,12.30
2018-09-22T03:32:25.812Z,12.30
2018-09-22T03:34:54.025Z,12.30
2018-09-22T03:37:22.167Z,12.40
2018-09-22T03:39:50.356Z,12.30
2018-09-22T03:42:18.510Z,12.30
2018-09-22T03:44:46.613Z,12.30
2018-09-22T03:47:14.760Z,12.20
2018-09-22T03:49:43.025Z,12.20
2018-09-22T03:52:11.223Z,12.20
2018-09-22T03:54:39.424Z,12.20
2018-09-22T03:57:07.602Z,12.20
2018-09-22T03:59:35.721Z,12.10
2018-09-22T04:02:03.913Z,12.10
2018-09-22T04:04:32.052Z,12.00
2018-09-22T04:07:00.164Z,12.00
2018-09-22T04:09:28.337Z,12.00
2018-09-22T04:11:56.548Z,12.10
2018-09-22T04:14:24.663Z,12.00
2018-09-22T04:16:52.739Z,12.00
2018-09-22T04:19:21.003Z,11.90
2018-09-22T04:21:49.193Z,11.90
2018-09-22T04:24:19.154Z,11.90
2018-09-22T04:26:49.021Z,11.90
2018-09-22T04:29:17.462Z,11.80
2018-09-22T04:31:45.606Z,11.90
2018-09-22T04:34:13.761Z,12.00
2018-09-22T04:36:42.461Z,12.00
2018-09-22T04:39:10.963Z,11.90
2018-09-22T04:41:40.537Z,11.80
2018-09-22T04:44:09.141Z,11.90
2018-09-22T04:46:37.579Z,11.80
2018-09-22T04:49:05.818Z,11.90
2018-09-22T04:51:33.921Z,11.90
2018-09-22T04:54:02.073Z,11.90
2018-09-22T04:56:30.391Z,11.90
2018-09-22T04:58:58.646Z,11.90
2018-09-22T05:01:27.124Z,12.00
2018-09-22T05:03:55.559Z,11.90
2018-09-22T05:06:23.692Z,12.00
2018-09-22T05:08:51.943Z,12.00
2018-09-22T05:11:20.117Z,11.90
2018-09-22T05:13:48.305Z,12.00
2018-09-22T05:16:16.479Z,12.00
2018-09-22T05:18:44.645Z,12.00
2018-09-22T05:21:12.847Z,12.10
2018-09-22T05:23:41.082Z,12.10
2018-09-22T05:26:09.225Z,12.10
2018-09-22T05:28:37.403Z,12.10
2018-09-22T05:31:06.026Z,12.20
2018-09-22T05:33:34.154Z,12.20
2018-09-22T05:36:02.356Z,12.20
2018-09-22T05:38:30.519Z,12.20
2018-09-22T05:40:58.732Z,12.20
2018-09-22T05:43:26.852Z,12.20
2018-09-22T05:45:55.034Z,12.30
2018-09-22T05:48:23.193Z,12.30
2018-09-22T05:50:51.389Z,12.40
2018-09-22T05:53:19.549Z,12.40
2018-09-22T05:55:47.730Z,12.50
2018-09-22T05:58:15.976Z,12.50
2018-09-22T06:00:44.064Z,12.50
2018-09-22T06:03:12.274Z,12.60
2018-09-22T06:05:40.404Z,12.60
2018-09-22T06:08:08.608Z,12.70
2018-09-22T06:10:37.181Z,12.80
2018-09-22T06:13:05.456Z,12.80
2018-09-22T06:15:33.637Z,12.90
2018-09-22T06:18:01.800Z,12.90
2018-09-22T06:20:30.006Z,13.00
2018-09-22T06:22:58.285Z,13.00
2018-09-22T06:25:26.462Z,13.10
2018-09-22T06:27:54.843Z,13.20
2018-09-22T06:30:23.031Z,13.20
2018-09-22T06:32:51.181Z,13.10
2018-09-22T06:35:19.360Z,13.20
2018-09-22T06:37:47.508Z,13.20
2018-09-22T06:40:15.672Z,13.30
2018-09-22T06:42:43.888Z,13.40
2018-09-22T06:45:12.005Z,13.40
2018-09-22T06:47:40.189Z,13.40
2018-09-22T06:50:08.385Z,13.40
2018-09-22T06:52:36.557Z,13.50
2018-09-22T06:55:04.790Z,13.60
2018-09-22T06:57:32.923Z,13.70
2018-09-22T07:00:01.149Z,13.70
2018-09-22T07:02:29.302Z,13.60
2018-09-22T07:04:57.498Z,13.70
2018-09-22T07:07:25.758Z,13.70
2018-09-22T07:09:53.897Z,13.80
2018-09-22T07:12:22.100Z,14.00
2018-09-22T07:14:50.208Z,13.80
2018-09-22T07:17:18.435Z,13.80
2018-09-22T07:19:46.576Z,13.80
2018-09-22T07:22:21.545Z,14.10
2018-09-22T07:24:49.694Z,14.00
2018-09-22T07:27:17.886Z,13.90
2018-09-22T07:29:46.085Z,14.00
2018-09-22T07:32:14.225Z,14.00
2018-09-22T07:34:42.405Z,14.10
2018-09-22T07:37:10.743Z,14.00
2018-09-22T07:39:41.204Z,14.20
2018-09-22T07:42:09.434Z,14.20
2018-09-22T07:44:37.536Z,14.30
2018-09-22T07:47:06.064Z,14.20
2018-09-22T07:49:34.218Z,14.20
2018-09-22T07:52:02.379Z,14.20
2018-09-22T07:54:30.537Z,14.30
2018-09-22T07:56:58.709Z,14.40
2018-09-22T07:59:26.915Z,14.50
2018-09-22T08:01:55.122Z,14.60
2018-09-22T08:04:23.248Z,14.90
2018-09-22T08:06:51.422Z,14.90
2018-09-22T08:09:19.622Z,14.60
2018-09-22T08:11:47.805Z,14.60
2018-09-22T08:14:16.016Z,14.60
2018-09-22T08:16:44.212Z,14.90
2018-09-22T08:19:12.397Z,15.40
2018-09-22T08:21:40.659Z,16.30
2018-09-22T08:24:08.851Z,16.60
2018-09-22T08:26:37.808Z,16.50
2018-09-22T08:29:06.107Z,15.90
2018-09-22T08:31:35.101Z,16.40
2018-09-22T08:34:03.336Z,17.20
2018-09-22T08:36:31.827Z,17.10
2018-09-22T08:38:59.639Z,17.00
2018-09-22T08:41:27.813Z,17.40
2018-09-22T08:43:56.083Z,17.50
2018-09-22T08:46:24.326Z,17.40
2018-09-22T08:48:52.592Z,17.90
2018-09-22T08:51:20.651Z,17.80
2018-09-22T08:53:48.793Z,17.00
2018-09-22T08:56:16.905Z,16.90
2018-09-22T08:58:45.026Z,15.90
2018-09-22T09:01:13.434Z,16.80
2018-09-22T09:03:41.548Z,17.90
2018-09-22T09:06:09.763Z,18.00
2018-09-22T09:08:37.969Z,17.40
2018-09-22T09:11:06.100Z,18.20
2018-09-22T09:13:34.349Z,18.30
2018-09-22T09:16:02.441Z,19.20
2018-09-22T09:18:30.614Z,19.40
2018-09-22T09:20:58.796Z,18.10
2018-09-22T09:23:27.132Z,18.60
2018-09-22T09:25:55.263Z,17.80
2018-09-22T09:28:23.348Z,18.10
2018-09-22T09:30:51.478Z,19.80
2018-09-22T09:33:19.568Z,19.60
2018-09-22T09:35:47.780Z,18.70
2018-09-22T09:38:15.911Z,18.10
2018-09-22T09:40:44.144Z,18.50
2018-09-22T09:43:12.267Z,19.40
2018-09-22T09:45:40.341Z,18.20
2018-09-22T09:48:08.607Z,18.50
2018-09-22T09:50:36.880Z,18.40
2018-09-22T09:53:05.160Z,19.00
2018-09-22T09:55:33.370Z,17.80
2018-09-22T09:58:01.525Z,17.40
2018-09-22T10:00:36.079Z,17.30
2018-09-22T10:03:04.229Z,18.00
2018-09-22T10:05:32.597Z,18.30
2018-09-22T10:08:00.815Z,19.40
2018-09-22T10:10:29.002Z,18.70
2018-09-22T10:12:57.207Z,18.70
2018-09-22T10:15:25.362Z,18.60
2018-09-22T10:17:53.502Z,18.20
2018-09-22T10:20:21.669Z,17.60
2018-09-22T10:22:49.842Z,17.20
2018-09-22T10:25:17.981Z,16.40
2018-09-22T10:27:46.159Z,17.00
2018-09-22T10:30:14.306Z,17.80
2018-09-22T10:32:42.614Z,19.30
2018-09-22T10:35:10.843Z,19.00
2018-09-22T10:37:38.963Z,17.60
2018-09-22T10:40:07.145Z,16.90
2018-09-22T10:42:35.334Z,17.60
2018-09-22T10:45:03.476Z,17.60
2018-09-22T10:47:31.660Z,17.70
2018-09-22T10:49:59.873Z,17.30
2018-09-22T10:52:28.032Z,17.30
2018-09-22T10:54:56.170Z,18.20
2018-09-22T10:57:24.377Z,18.30
2018-09-22T10:59:52.533Z,18.00
2018-09-22T11:02:20.748Z,17.80
2018-09-22T11:04:49.052Z,18.00
2018-09-22T11:07:17.234Z,18.00
2018-09-22T11:09:45.598Z,18.20
2018-09-22T11:12:13.868Z,18.70
2018-09-22T11:14:42.002Z,18.20
2018-09-22T11:17:10.927Z,18.90
2018-09-22T11:19:39.103Z,20.10
2018-09-22T11:22:07.233Z,19.10
2018-09-22T11:24:35.412Z,18.60
2018-09-22T11:27:03.707Z,17.60
2018-09-22T11:29:31.896Z,17.10
2018-09-22T11:32:00.077Z,17.00
2018-09-22T11:34:28.246Z,17.40
2018-09-22T11:36:56.379Z,17.20
2018-09-22T11:39:24.556Z,17.60
2018-09-22T11:41:52.714Z,18.50
2018-09-22T11:44:20.904Z,19.40
2018-09-22T11:46:49.122Z,19.20
2018-09-22T11:49:17.269Z,18.50
2018-09-22T11:51:45.447Z,18.70
2018-09-22T11:54:13.689Z,17.80
2018-09-22T11:56:41.950Z,17.30
2018-09-22T11:59:10.159Z,17.40
2018-09-22T12:01:38.387Z,18.00
2018-09-22T12:04:06.749Z,18.20
2018-09-22T12:06:34.978Z,18.30
2018-09-22T12:09:03.087Z,17.40
2018-09-22T12:11:31.242Z,17.00
2018-09-22T12:13:59.404Z,17.00
2018-09-22T12:16:27.659Z,17.20
2018-09-22T12:18:55.760Z,17.40
2018-09-22T12:21:24.006Z,17.30
2018-09-22T12:23:52.098Z,17.70
2018-09-22T12:26:20.297Z,17.80
2018-09-22T12:28:48.449Z,17.80
2018-09-22T12:31:16.665Z,17.70
2018-09-22T12:33:44.868Z,18.40
2018-09-22T12:36:13.044Z,19.20
2018-09-22T12:38:41.126Z,19.40
2018-09-22T12:41:09.221Z,18.60
2018-09-22T12:43:37.494Z,18.50
2018-09-22T12:46:05.760Z,17.80
2018-09-22T12:48:34.859Z,17.90
2018-09-22T12:51:03.056Z,18.30
2018-09-22T12:53:31.228Z,18.40
2018-09-22T12:55:59.550Z,18.00
2018-09-22T12:58:28.688Z,18.70
2018-09-22T13:00:56.922Z,18.20
2018-09-22T13:03:25.034Z,17.90
2018-09-22T13:05:53.409Z,18.60
2018-09-22T13:08:23.642Z,18.50
2018-09-22T13:10:51.808Z,18.10
2018-09-22T13:13:20.038Z,17.50
2018-09-22T13:15:48.262Z,17.60
2018-09-22T13:18:16.474Z,17.80
2018-09-22T13:20:44.662Z,17.80
2018-09-22T13:23:12.810Z,17.70
2018-09-22T13:25:40.952Z,17.50
2018-09-22T13:28:09.133Z,17.50
2018-09-22T13:30:37.329Z,17.50
2018-09-22T13:33:05.468Z,17.60
2018-09-22T13:35:33.547Z,17.70
2018-09-22T13:38:01.680Z,17.80
2018-09-22T13:40:29.884Z,17.70
2018-09-22T13:42:58.014Z,17.80
2018-09-22T13:45:26.157Z,17.90
2018-09-22T13:47:54.532Z,18.00
2018-09-22T13:50:22.698Z,18.00
2018-09-22T13:52:51.379Z,17.80
2018-09-22T13:55:19.481Z,17.50
2018-09-22T13:57:47.637Z,17.60
2018-09-22T14:00:15.878Z,17.60
2018-09-22T14:02:44.004Z,17.80
2018-09-22T14:05:12.130Z,17.80
2018-09-22T14:07:40.257Z,17.70
2018-09-22T14:10:08.446Z,17.60
2018-09-22T14:12:36.505Z,17.60
2018-09-22T14:15:04.718Z,17.50
2018-09-22T14:17:32.833Z,17.50
2018-09-22T14:20:00.970Z,17.70
2018-09-22T14:22:29.117Z,17.50
2018-09-22T14:24:57.234Z,17.20
2018-09-22T14:27:25.336Z,17.20
2018-09-22T14:29:53.537Z,17.20
2018-09-22T14:32:21.709Z,17.30
2018-09-22T14:34:49.896Z,17.20
2018-09-22T14:37:17.944Z,17.20
2018-09-22T14:39:46.105Z,17.00
2018-09-22T14:42:14.281Z,17.00
2018-09-22T14:44:42.480Z,17.10
2018-09-22T14:47:10.684Z,17.10
2018-09-22T14:49:38.993Z,17.10
2018-09-22T14:52:07.225Z,17.20
2018-09-22T14:54:35.365Z,17.20
2018-09-22T14:57:03.549Z,17.10
2018-09-22T14:59:31.830Z,17.10
2018-09-22T15:02:00.013Z,17.10
2018-09-22T15:04:28.110Z,17.00
2018-09-22T15:06:56.249Z,17.00
2018-09-22T15:09:24.407Z,17.00
2018-09-22T15:11:52.607Z,17.00
2018-09-22T15:14:20.805Z,17.10
2018-09-22T15:16:48.997Z,17.00
2018-09-22T15:19:17.157Z,17.10
2018-09-22T15:21:45.318Z,17.10
2018-09-22T15:24:13.518Z,17.10
2018-09-22T15:26:41.720Z,17.10
2018-09-22T15:29:10.143Z,17.10
2018-09-22T15:31:38.455Z,17.10
2018-09-22T15:34:06.633Z,17.10
2018-09-22T15:36:34.830Z,17.10
2018-09-22T15:39:03.210Z,17.00
2018-09-22T15:41:32.373Z,17.00
2018-09-22T15:44:00.525Z,17.00
2018-09-22T15:46:28.687Z,17.00
2018-09-22T15:48:56.857Z,16.90
2018-09-22T15:51:25.028Z,16.90
2018-09-22T15:53:53.924Z,16.80
2018-09-22T15:56:22.140Z,16.80
2018-09-22T15:58:50.235Z,16.80
2018-09-22T16:01:20.126Z,16.80
2018-09-22T16:03:48.396Z,16.70
2018-09-22T16:06:16.683Z,16.70
2018-09-22T16:08:44.937Z,16.70
2018-09-22T16:11:13.111Z,16.60
2018-09-22T16:13:41.428Z,16.60
2018-09-22T16:16:09.635Z,16.60
2018-09-22T16:18:37.876Z,16.50
2018-09-22T16:21:06.194Z,16.50
2018-09-22T16:23:34.460Z,16.40
2018-09-22T16:26:02.683Z,16.40
2018-09-22T16:28:30.863Z,16.30
2018-09-22T16:30:58.992Z,16.30
2018-09-22T16:33:27.413Z,16.30
2018-09-22T16:35:55.584Z,16.20
2018-09-22T16:38:23.829Z,16.20
2018-09-22T16:40:52.070Z,16.20
2018-09-22T16:43:20.556Z,16.10
2018-09-22T16:45:48.929Z,16.10
2018-09-22T16:48:17.265Z,16.10
2018-09-22T16:50:45.588Z,16.00
2018-09-22T16:53:13.962Z,16.10
2018-09-22T16:55:42.218Z,16.00
2018-09-22T16:58:10.435Z,15.90
2018-09-22T17:00:38.618Z,15.90
2018-09-22T17:03:06.836Z,15.80
2018-09-22T17:05:35.152Z,15.60
2018-09-22T17:08:03.565Z,15.60
2018-09-22T17:10:31.772Z,15.60
2018-09-22T17:12:59.908Z,15.70
2018-09-22T17:15:28.185Z,15.60
2018-09-22T17:17:56.440Z,15.40
2018-09-22T17:20:24.839Z,15.40
2018-09-22T17:22:53.112Z,15.50
2018-09-22T17:25:21.422Z,15.50
2018-09-22T17:27:49.701Z,15.50
2018-09-22T17:30:18.013Z,15.50
2018-09-22T17:32:46.232Z,15.50
2018-09-22T17:35:14.471Z,15.50
2018-09-22T17:37:42.732Z,15.50
2018-09-22T17:40:10.967Z,15.50
2018-09-22T17:42:39.193Z,15.30
2018-09-22T17:45:07.451Z,15.40
2018-09-22T17:47:35.545Z,15.40
2018-09-22T17:50:03.950Z,15.30
2018-09-22T17:52:32.136Z,15.30
2018-09-22T17:55:00.297Z,15.30
2018-09-22T17:57:28.469Z,15.30
2018-09-22T17:59:56.673Z,15.30
2018-09-22T18:02:24.849Z,15.30
2018-09-22T18:04:53.110Z,15.20
2018-09-22T18:07:21.289Z,15.30
2018-09-22T18:09:49.458Z,15.30
2018-09-22T18:12:17.635Z,15.30
2018-09-22T18:14:45.800Z,15.20
2018-09-22T18:17:14.013Z,15.30
2018-09-22T18:19:42.187Z,15.20
2018-09-22T18:22:10.475Z,15.30
2018-09-22T18:24:38.592Z,15.20
2018-09-22T18:27:06.853Z,15.20
2018-09-22T18:29:35.165Z,15.20
2018-09-22T18:32:03.505Z,15.10
2018-09-22T18:34:31.798Z,15.20
2018-09-22T18:37:00.002Z,15.10
2018-09-22T18:39:28.218Z,15.10
2018-09-22T18:41:56.407Z,15.10
2018-09-22T18:44:24.672Z,15.10
2018-09-22T18:46:52.888Z,15.20
2018-09-22T18:49:21.033Z,15.10
2018-09-22T18:51:49.218Z,15.10
2018-09-22T18:54:17.537Z,15.00
2018-09-22T18:56:45.924Z,15.00
2018-09-22T18:59:14.036Z,15.00
2018-09-22T19:01:42.367Z,14.90
2018-09-22T19:04:10.628Z,14.90
2018-09-22T19:06:38.816Z,14.90
2018-09-22T19:09:08.305Z,14.90
2018-09-22T19:11:36.683Z,14.90
2018-09-22T19:14:11.871Z,14.90
2018-09-22T19:17:01.430Z,14.90
2018-09-22T19:19:34.232Z,14.90
2018-09-22T19:22:04.609Z,14.90
2018-09-22T19:24:35.640Z,14.90
2018-09-22T19:27:07.370Z,14.90
2018-09-22T19:29:41.246Z,14.90
2018-09-22T19:32:15.725Z,14.80
2018-09-22T19:34:49.096Z,14.80
2018-09-22T19:37:22.954Z,14.90
2018-09-22T19:39:56.251Z,14.90
2018-09-22T19:42:29.111Z,14.90
2018-09-22T19:45:08.672Z,14.90
2018-09-22T19:47:42.693Z,14.80
2018-09-22T19:50:13.778Z,14.70
2018-09-22T19:52:46.741Z,14.70
2018-09-22T19:55:14.922Z,14.70
2018-09-22T19:57:43.087Z,14.60
2018-09-22T20:00:11.576Z,14.60
2018-09-22T20:02:40.162Z,14.60
2018-09-22T20:05:09.543Z,14.70
2018-09-22T20:07:37.746Z,14.70
2018-09-22T20:10:05.852Z,14.70
2018-09-22T20:12:34.105Z,14.80
2018-09-22T20:15:02.353Z,14.80
2018-09-22T20:17:30.587Z,14.90
2018-09-22T20:19:58.690Z,15.00
2018-09-22T20:22:26.866Z,15.10
2018-09-22T20:24:55.067Z,15.10
2018-09-22T20:27:24.088Z,15.10
2018-09-22T20:29:52.469Z,15.10
2018-09-22T20:32:20.947Z,15.20
2018-09-22T20:34:49.649Z,15.30
2018-09-22T20:37:18.086Z,15.30
2018-09-22T20:39:46.310Z,15.30
2018-09-22T20:42:14.584Z,15.30
2018-09-22T20:44:44.759Z,15.40
2018-09-22T20:47:12.912Z,15.30
2018-09-22T20:49:41.536Z,15.40
2018-09-22T20:52:09.832Z,15.40
2018-09-22T20:54:38.114Z,15.40
2018-09-22T20:57:06.408Z,15.30
2018-09-22T20:59:34.754Z,15.30
2018-09-22T21:02:03.161Z,15.30
2018-09-22T21:04:31.515Z,15.30
2018-09-22T21:06:59.860Z,15.30
2018-09-22T21:09:28.173Z,15.30
2018-09-22T21:11:56.588Z,15.30
2018-09-22T21:14:24.830Z,15.30
2018-09-22T21:16:53.045Z,15.40
2018-09-22T21:19:21.241Z,15.40
2018-09-22T21:21:49.356Z,15.40
2018-09-22T21:24:17.630Z,15.40
2018-09-22T21:26:45.712Z,15.40
2018-09-22T21:29:14.097Z,15.30
2018-09-22T21:31:42.248Z,15.30
2018-09-22T21:34:10.516Z,15.30
2018-09-22T21:36:38.736Z,15.30
2018-09-22T21:39:08.613Z,15.30
2018-09-22T21:41:36.805Z,15.30
2018-09-22T21:44:04.986Z,15.30
2018-09-22T21:46:33.673Z,15.30
2018-09-22T21:49:01.846Z,15.30
2018-09-22T21:51:30.017Z,15.30
2018-09-22T21:53:58.290Z,15.30
2018-09-22T21:56:26.612Z,15.30
2018-09-22T21:58:55.096Z,15.30
2018-09-22T22:01:28.698Z,15.30
2018-09-22T22:03:56.845Z,15.30
2018-09-22T22:06:25.032Z,15.30
2018-09-22T22:08:53.196Z,15.20
2018-09-22T22:11:21.466Z,15.20
2018-09-22T22:13:49.720Z,15.20
2018-09-22T22:16:17.921Z,15.20
2018-09-22T22:18:46.089Z,15.10
2018-09-22T22:21:14.233Z,15.10
2018-09-22T22:23:42.453Z,15.10
2018-09-22T22:26:10.618Z,15.10
2018-09-22T22:28:38.819Z,15.00
2018-09-22T22:31:06.957Z,15.00
2018-09-22T22:33:35.090Z,15.00
2018-09-22T22:36:03.257Z,15.00
2018-09-22T22:38:31.368Z,15.00
2018-09-22T22:40:59.550Z,15.00
2018-09-22T22:43:27.808Z,15.00
2018-09-22T22:45:55.957Z,14.90
2018-09-22T22:48:24.032Z,14.90
2018-09-22T22:50:52.281Z,14.90
2018-09-22T22:53:20.529Z,14.90
2018-09-22T22:55:48.736Z,14.80
2018-09-22T22:58:16.997Z,14.70
2018-09-22T23:00:45.196Z,14.30
2018-09-22T23:03:13.350Z,14.10
2018-09-22T23:05:41.517Z,14.00
2018-09-22T23:08:09.706Z,13.90
2018-09-22T23:10:37.861Z,13.90
2018-09-22T23:13:06.204Z,13.80
2018-09-22T23:15:34.354Z,13.80
2018-09-22T23:18:02.493Z,13.80
2018-09-22T23:20:30.689Z,13.70
2018-09-22T23:22:58.888Z,13.60
2018-09-22T23:25:26.932Z,13.60
2018-09-22T23:27:55.094Z,13.70
2018-09-22T23:30:23.296Z,13.60
2018-09-22T23:32:51.475Z,13.50
2018-09-22T23:35:19.613Z,13.40
2018-09-22T23:37:47.787Z,13.30
2018-09-22T23:40:15.932Z,13.20
2018-09-22T23:42:44.153Z,13.10
2018-09-22T23:45:12.351Z,13.10
2018-09-22T23:47:40.480Z,13.00
2018-09-22T23:50:08.596Z,12.90
2018-09-22T23:52:36.897Z,13.00
2018-09-22T23:55:05.168Z,12.90
2018-09-22T23:57:33.378Z,12.90
